KPSF/PSF METAR and TAF weather

Enter ICAO airport designator
Station Type Date Time Source
KPSF METAR 2020/02/19 13:54 UTC NOAA

KPSF 191354Z AUTO 29022G34KT 10SM CLR 01/M09 A3008 RMK AO2 PK WND 28041/1337 SLP194 T00061089


Station Type Date Time Source
KPSF Decoded METAR 2020/02/19 13:54 UTC NOAA

PITTSFIELD MUNICIPAL AIRPORT , MA, United States (KPSF) 42-26N 073-17W 355M
Feb 19, 2020 - 08:54 AM EST / 2020.02.19 1354 UTC
Wind: from the WNW (290 degrees) at 25 MPH (22 KT) gusting to 39 MPH (34 KT):0
Visibility: 10 mile(s):0
Sky conditions: clear
Temperature: 33.1 F (0.6 C)
Windchill: 19 F (-7 C):1
Dew Point: 16.0 F (-8.9 C)
Relative Humidity: 48%
Pressure (altimeter): 30.08 in. Hg (1018 hPa)
ob: KPSF 191354Z AUTO 29022G34KT 10SM CLR 01/M09 A3008 RMK AO2 PK WND 28041/1337 SLP194 T00061089
cycle: 14

Station Type Date Time Source
KPSF TAF 2020/02/19 14:45 UTC NOAA

TAF
AMD KPSF 191342Z 1914/2012 29016G30KT P6SM VCSH BKN045
FM192300 29012KT P6SM SCT050
FM200600 29007KT P6SM BKN040

Example: see airport list